Terminal Aerodrome Forecast
Issued by NWS

Home | Current Version | Previous Version | Text Only | Print | Product List | Glossary On
Versions: 1 2 3 4 5 6 7 8 9 10 11 12 13 14 15 16 17 18
847
FTUS41 KBTV 242320
TAFSLK
TAF
KSLK 242320Z 2500/2524 00000KT P6SM SCT250
     FM250200 00000KT P6SM BKN150 BKN250
     FM251400 22007KT P6SM SCT090 BKN200
     FM251900 23008KT P6SM VCSH SCT035 BKN060
     FM252200 23007KT P6SM SCT045 BKN070=

USA.gov is the U.S. government's official web portal to all federal, state and local government web resources and services.